sensor_id;sensor_type;location;lat;lon;timestamp;P1;durP1;ratioP1;P2;durP2;ratioP2
58071;SDS011;60383;46.626;18.866;2022-08-05T00:01:34;5.93;;;5.13;;
58071;SDS011;60383;46.626;18.866;2022-08-05T00:04:00;10.43;;;6.10;;
58071;SDS011;60383;46.626;18.866;2022-08-05T00:06:25;8.82;;;5.43;;
58071;SDS011;60383;46.626;18.866;2022-08-05T00:08:51;6.55;;;5.53;;
58071;SDS011;60383;46.626;18.866;2022-08-05T00:11:16;7.97;;;5.72;;
58071;SDS011;60383;46.626;18.866;2022-08-05T00:13:42;7.82;;;5.30;;
58071;SDS011;60383;46.626;18.866;2022-08-05T00:16:11;6.13;;;5.40;;
58071;SDS011;60383;46.626;18.866;2022-08-05T00:18:39;5.75;;;4.90;;
58071;SDS011;60383;46.626;18.866;2022-08-05T00:21:07;5.60;;;4.78;;
58071;SDS011;60383;46.626;18.866;2022-08-05T00:23:32;6.57;;;4.90;;
58071;SDS011;60383;46.626;18.866;2022-08-05T00:25:58;5.40;;;4.90;;
58071;SDS011;60383;46.626;18.866;2022-08-05T00:28:23;5.72;;;5.22;;
58071;SDS011;60383;46.626;18.866;2022-08-05T00:30:49;5.45;;;4.95;;
58071;SDS011;60383;46.626;18.866;2022-08-05T00:33:17;5.63;;;5.00;;
58071;SDS011;60383;46.626;18.866;2022-08-05T00:35:43;7.05;;;5.20;;
58071;SDS011;60383;46.626;18.866;2022-08-05T00:38:08;6.32;;;5.10;;
58071;SDS011;60383;46.626;18.866;2022-08-05T00:40:44;5.43;;;4.80;;
58071;SDS011;60383;46.626;18.866;2022-08-05T00:43:14;7.20;;;5.30;;
58071;SDS011;60383;46.626;18.866;2022-08-05T00:45:40;5.95;;;5.07;;
58071;SDS011;60383;46.626;18.866;2022-08-05T00:48:07;5.82;;;5.22;;
58071;SDS011;60383;46.626;18.866;2022-08-05T00:50:32;7.10;;;5.57;;
58071;SDS011;60383;46.626;18.866;2022-08-05T00:52:58;6.65;;;5.90;;
58071;SDS011;60383;46.626;18.866;2022-08-05T00:55:24;7.47;;;6.28;;
58071;SDS011;60383;46.626;18.866;2022-08-05T00:57:49;5.95;;;5.28;;
58071;SDS011;60383;46.626;18.866;2022-08-05T01:00:14;6.10;;;5.43;;
58071;SDS011;60383;46.626;18.866;2022-08-05T01:02:40;9.95;;;5.70;;
58071;SDS011;60383;46.626;18.866;2022-08-05T01:05:05;7.53;;;5.25;;
58071;SDS011;60383;46.626;18.866;2022-08-05T01:07:31;6.85;;;5.45;;
58071;SDS011;60383;46.626;18.866;2022-08-05T01:09:57;12.07;;;5.70;;
58071;SDS011;60383;46.626;18.866;2022-08-05T01:12:22;5.97;;;5.38;;
58071;SDS011;60383;46.626;18.866;2022-08-05T01:15:03;7.13;;;5.80;;
58071;SDS011;60383;46.626;18.866;2022-08-05T01:28:53;6.68;;;5.32;;
58071;SDS011;60383;46.626;18.866;2022-08-05T01:31:24;6.25;;;5.63;;
58071;SDS011;60383;46.626;18.866;2022-08-05T01:36:49;6.60;;;5.50;;
58071;SDS011;60383;46.626;18.866;2022-08-05T01:39:18;5.90;;;5.30;;
58071;SDS011;60383;46.626;18.866;2022-08-05T01:41:45;6.28;;;5.60;;
58071;SDS011;60383;46.626;18.866;2022-08-05T01:44:13;8.13;;;5.68;;
58071;SDS011;60383;46.626;18.866;2022-08-05T01:46:40;9.50;;;5.82;;
58071;SDS011;60383;46.626;18.866;2022-08-05T01:49:08;6.10;;;5.57;;
58071;SDS011;60383;46.626;18.866;2022-08-05T01:51:36;6.10;;;5.47;;
58071;SDS011;60383;46.626;18.866;2022-08-05T01:54:04;6.97;;;5.70;;
58071;SDS011;60383;46.626;18.866;2022-08-05T01:56:34;6.65;;;5.30;;
58071;SDS011;60383;46.626;18.866;2022-08-05T01:59:03;7.82;;;5.32;;
58071;SDS011;60383;46.626;18.866;2022-08-05T02:01:32;8.10;;;5.53;;
58071;SDS011;60383;46.626;18.866;2022-08-05T02:03:59;6.03;;;5.40;;
58071;SDS011;60383;46.626;18.866;2022-08-05T02:06:27;7.03;;;5.40;;
58071;SDS011;60383;46.626;18.866;2022-08-05T02:08:52;6.72;;;5.50;;
58071;SDS011;60383;46.626;18.866;2022-08-05T02:11:19;7.07;;;5.35;;
58071;SDS011;60383;46.626;18.866;2022-08-05T02:13:57;7.43;;;5.40;;
58071;SDS011;60383;46.626;18.866;2022-08-05T02:16:38;6.20;;;5.07;;
58071;SDS011;60383;46.626;18.866;2022-08-05T02:19:32;5.78;;;5.05;;
58071;SDS011;60383;46.626;18.866;2022-08-05T02:22:03;5.95;;;5.30;;
58071;SDS011;60383;46.626;18.866;2022-08-05T02:24:37;5.53;;;5.03;;
58071;SDS011;60383;46.626;18.866;2022-08-05T02:27:05;5.25;;;4.80;;
58071;SDS011;60383;46.626;18.866;2022-08-05T02:29:34;5.93;;;5.03;;
58071;SDS011;60383;46.626;18.866;2022-08-05T02:32:01;6.65;;;4.82;;
58071;SDS011;60383;46.626;18.866;2022-08-05T02:34:29;5.32;;;4.68;;
58071;SDS011;60383;46.626;18.866;2022-08-05T02:36:58;5.55;;;5.05;;
58071;SDS011;60383;46.626;18.866;2022-08-05T02:39:28;7.40;;;4.82;;
58071;SDS011;60383;46.626;18.866;2022-08-05T02:41:59;5.63;;;4.90;;
58071;SDS011;60383;46.626;18.866;2022-08-05T02:44:26;5.20;;;4.70;;
58071;SDS011;60383;46.626;18.866;2022-08-05T02:46:55;6.20;;;5.30;;
58071;SDS011;60383;46.626;18.866;2022-08-05T02:49:22;5.60;;;4.82;;
58071;SDS011;60383;46.626;18.866;2022-08-05T02:51:49;5.32;;;4.82;;
58071;SDS011;60383;46.626;18.866;2022-08-05T02:54:15;7.53;;;5.05;;
58071;SDS011;60383;46.626;18.866;2022-08-05T02:56:41;5.03;;;4.57;;
58071;SDS011;60383;46.626;18.866;2022-08-05T02:59:09;5.28;;;4.55;;
58071;SDS011;60383;46.626;18.866;2022-08-05T03:01:36;6.10;;;4.60;;
58071;SDS011;60383;46.626;18.866;2022-08-05T03:04:04;6.20;;;4.30;;
58071;SDS011;60383;46.626;18.866;2022-08-05T03:06:33;5.82;;;4.80;;
58071;SDS011;60383;46.626;18.866;2022-08-05T03:08:59;5.40;;;4.70;;
58071;SDS011;60383;46.626;18.866;2022-08-05T03:11:26;5.40;;;4.90;;
58071;SDS011;60383;46.626;18.866;2022-08-05T03:13:52;6.60;;;4.53;;
58071;SDS011;60383;46.626;18.866;2022-08-05T03:16:18;5.85;;;4.57;;
58071;SDS011;60383;46.626;18.866;2022-08-05T03:18:45;8.98;;;4.85;;
58071;SDS011;60383;46.626;18.866;2022-08-05T03:21:10;6.50;;;5.32;;
58071;SDS011;60383;46.626;18.866;2022-08-05T03:23:37;6.07;;;5.53;;
58071;SDS011;60383;46.626;18.866;2022-08-05T03:26:05;9.45;;;5.78;;
58071;SDS011;60383;46.626;18.866;2022-08-05T03:28:31;10.93;;;6.20;;
58071;SDS011;60383;46.626;18.866;2022-08-05T03:30:57;7.88;;;6.20;;
58071;SDS011;60383;46.626;18.866;2022-08-05T03:33:25;9.07;;;6.40;;
58071;SDS011;60383;46.626;18.866;2022-08-05T03:35:52;7.82;;;6.13;;
58071;SDS011;60383;46.626;18.866;2022-08-05T03:38:20;6.63;;;5.72;;
58071;SDS011;60383;46.626;18.866;2022-08-05T03:40:46;9.68;;;6.15;;
58071;SDS011;60383;46.626;18.866;2022-08-05T03:43:12;7.45;;;5.95;;
58071;SDS011;60383;46.626;18.866;2022-08-05T03:45:37;7.45;;;5.70;;
58071;SDS011;60383;46.626;18.866;2022-08-05T03:48:03;8.10;;;5.82;;
58071;SDS011;60383;46.626;18.866;2022-08-05T03:50:50;6.07;;;5.45;;
58071;SDS011;60383;46.626;18.866;2022-08-05T03:53:29;6.75;;;5.15;;
58071;SDS011;60383;46.626;18.866;2022-08-05T03:56:10;5.90;;;5.30;;
58071;SDS011;60383;46.626;18.866;2022-08-05T03:58:40;5.60;;;5.10;;
58071;SDS011;60383;46.626;18.866;2022-08-05T04:03:36;5.50;;;5.00;;
58071;SDS011;60383;46.626;18.866;2022-08-05T04:06:04;7.97;;;5.80;;
58071;SDS011;60383;46.626;18.866;2022-08-05T04:08:31;6.43;;;5.28;;
58071;SDS011;60383;46.626;18.866;2022-08-05T04:10:59;7.85;;;5.50;;
58071;SDS011;60383;46.626;18.866;2022-08-05T04:13:26;6.53;;;5.80;;
58071;SDS011;60383;46.626;18.866;2022-08-05T04:15:52;8.18;;;5.60;;
58071;SDS011;60383;46.626;18.866;2022-08-05T04:18:19;6.35;;;5.70;;
58071;SDS011;60383;46.626;18.866;2022-08-05T04:20:51;7.50;;;5.72;;
58071;SDS011;60383;46.626;18.866;2022-08-05T04:23:20;5.93;;;5.43;;
58071;SDS011;60383;46.626;18.866;2022-08-05T04:25:47;6.18;;;5.57;;
58071;SDS011;60383;46.626;18.866;2022-08-05T04:28:13;6.88;;;6.20;;
58071;SDS011;60383;46.626;18.866;2022-08-05T04:30:38;7.63;;;5.68;;
58071;SDS011;60383;46.626;18.866;2022-08-05T04:33:04;6.40;;;5.80;;
58071;SDS011;60383;46.626;18.866;2022-08-05T04:35:29;9.05;;;5.88;;
58071;SDS011;60383;46.626;18.866;2022-08-05T04:37:55;6.22;;;5.68;;
58071;SDS011;60383;46.626;18.866;2022-08-05T04:40:20;6.90;;;5.90;;
58071;SDS011;60383;46.626;18.866;2022-08-05T04:42:45;8.90;;;5.90;;
58071;SDS011;60383;46.626;18.866;2022-08-05T04:45:11;7.85;;;5.97;;
58071;SDS011;60383;46.626;18.866;2022-08-05T04:47:36;6.80;;;6.20;;
58071;SDS011;60383;46.626;18.866;2022-08-05T04:50:02;7.43;;;5.82;;
58071;SDS011;60383;46.626;18.866;2022-08-05T04:52:27;6.25;;;5.65;;
58071;SDS011;60383;46.626;18.866;2022-08-05T04:54:53;7.03;;;6.05;;
58071;SDS011;60383;46.626;18.866;2022-08-05T04:57:19;6.18;;;5.22;;
58071;SDS011;60383;46.626;18.866;2022-08-05T04:59:44;6.40;;;5.55;;
58071;SDS011;60383;46.626;18.866;2022-08-05T05:02:10;7.30;;;5.45;;
58071;SDS011;60383;46.626;18.866;2022-08-05T05:04:36;6.60;;;5.43;;
58071;SDS011;60383;46.626;18.866;2022-08-05T05:07:01;9.55;;;5.50;;
58071;SDS011;60383;46.626;18.866;2022-08-05T05:09:26;7.05;;;5.63;;
58071;SDS011;60383;46.626;18.866;2022-08-05T05:11:52;7.32;;;5.55;;
58071;SDS011;60383;46.626;18.866;2022-08-05T05:14:18;6.57;;;5.45;;
58071;SDS011;60383;46.626;18.866;2022-08-05T05:16:44;8.48;;;5.75;;
58071;SDS011;60383;46.626;18.866;2022-08-05T05:19:09;7.30;;;5.75;;
58071;SDS011;60383;46.626;18.866;2022-08-05T05:21:35;6.35;;;5.55;;
58071;SDS011;60383;46.626;18.866;2022-08-05T05:24:00;6.35;;;5.75;;
58071;SDS011;60383;46.626;18.866;2022-08-05T05:26:25;8.02;;;5.85;;
58071;SDS011;60383;46.626;18.866;2022-08-05T05:28:51;7.00;;;5.28;;
58071;SDS011;60383;46.626;18.866;2022-08-05T05:31:16;5.80;;;5.28;;
58071;SDS011;60383;46.626;18.866;2022-08-05T05:33:42;5.70;;;5.10;;
58071;SDS011;60383;46.626;18.866;2022-08-05T05:36:07;8.00;;;5.55;;
58071;SDS011;60383;46.626;18.866;2022-08-05T05:38:33;6.22;;;5.28;;
58071;SDS011;60383;46.626;18.866;2022-08-05T05:40:58;7.28;;;5.20;;
58071;SDS011;60383;46.626;18.866;2022-08-05T05:43:24;5.43;;;4.97;;
58071;SDS011;60383;46.626;18.866;2022-08-05T05:45:49;7.60;;;5.63;;
58071;SDS011;60383;46.626;18.866;2022-08-05T05:48:15;8.77;;;5.47;;
58071;SDS011;60383;46.626;18.866;2022-08-05T05:50:40;5.85;;;5.25;;
58071;SDS011;60383;46.626;18.866;2022-08-05T05:53:06;11.82;;;5.30;;
58071;SDS011;60383;46.626;18.866;2022-08-05T05:55:33;6.35;;;5.45;;
58071;SDS011;60383;46.626;18.866;2022-08-05T05:57:59;8.95;;;5.35;;
58071;SDS011;60383;46.626;18.866;2022-08-05T06:00:24;8.98;;;5.20;;
58071;SDS011;60383;46.626;18.866;2022-08-05T06:02:50;5.88;;;4.97;;
58071;SDS011;60383;46.626;18.866;2022-08-05T06:05:15;7.38;;;4.70;;
58071;SDS011;60383;46.626;18.866;2022-08-05T06:07:42;6.05;;;4.80;;
58071;SDS011;60383;46.626;18.866;2022-08-05T06:10:09;7.63;;;4.88;;
58071;SDS011;60383;46.626;18.866;2022-08-05T06:12:35;6.60;;;4.85;;
58071;SDS011;60383;46.626;18.866;2022-08-05T06:15:02;6.55;;;4.85;;
58071;SDS011;60383;46.626;18.866;2022-08-05T06:17:28;5.55;;;4.82;;
58071;SDS011;60383;46.626;18.866;2022-08-05T06:19:54;6.50;;;4.85;;
58071;SDS011;60383;46.626;18.866;2022-08-05T06:22:23;7.30;;;4.55;;
58071;SDS011;60383;46.626;18.866;2022-08-05T06:24:55;5.57;;;4.88;;
58071;SDS011;60383;46.626;18.866;2022-08-05T06:27:21;7.35;;;4.75;;
58071;SDS011;60383;46.626;18.866;2022-08-05T06:29:47;5.07;;;4.47;;
58071;SDS011;60383;46.626;18.866;2022-08-05T06:32:12;6.30;;;5.10;;
58071;SDS011;60383;46.626;18.866;2022-08-05T06:34:38;7.88;;;4.68;;
58071;SDS011;60383;46.626;18.866;2022-08-05T06:37:04;5.50;;;4.85;;
58071;SDS011;60383;46.626;18.866;2022-08-05T06:39:30;9.88;;;4.45;;
58071;SDS011;60383;46.626;18.866;2022-08-05T06:41:57;6.45;;;4.60;;
58071;SDS011;60383;46.626;18.866;2022-08-05T06:44:26;6.13;;;4.38;;
58071;SDS011;60383;46.626;18.866;2022-08-05T06:46:51;7.25;;;5.10;;
58071;SDS011;60383;46.626;18.866;2022-08-05T06:49:17;4.68;;;4.18;;
58071;SDS011;60383;46.626;18.866;2022-08-05T06:51:42;5.20;;;4.57;;
58071;SDS011;60383;46.626;18.866;2022-08-05T06:54:08;5.05;;;4.07;;
58071;SDS011;60383;46.626;18.866;2022-08-05T06:56:33;7.05;;;4.10;;
58071;SDS011;60383;46.626;18.866;2022-08-05T06:58:59;4.78;;;4.28;;
58071;SDS011;60383;46.626;18.866;2022-08-05T07:01:24;6.00;;;4.40;;
58071;SDS011;60383;46.626;18.866;2022-08-05T07:03:50;6.68;;;4.68;;
58071;SDS011;60383;46.626;18.866;2022-08-05T07:06:16;6.45;;;4.32;;
58071;SDS011;60383;46.626;18.866;2022-08-05T07:08:42;5.45;;;4.18;;
58071;SDS011;60383;46.626;18.866;2022-08-05T07:11:08;6.30;;;4.13;;
58071;SDS011;60383;46.626;18.866;2022-08-05T07:13:35;4.47;;;4.07;;
58071;SDS011;60383;46.626;18.866;2022-08-05T07:16:19;4.47;;;4.07;;
58071;SDS011;60383;46.626;18.866;2022-08-05T07:19:03;4.55;;;4.13;;
58071;SDS011;60383;46.626;18.866;2022-08-05T07:21:28;5.53;;;4.25;;
58071;SDS011;60383;46.626;18.866;2022-08-05T07:23:55;6.00;;;3.95;;
58071;SDS011;60383;46.626;18.866;2022-08-05T07:26:21;4.70;;;4.30;;
58071;SDS011;60383;46.626;18.866;2022-08-05T07:28:46;7.93;;;3.92;;
58071;SDS011;60383;46.626;18.866;2022-08-05T07:31:12;4.43;;;3.88;;
58071;SDS011;60383;46.626;18.866;2022-08-05T07:33:37;6.43;;;4.13;;
58071;SDS011;60383;46.626;18.866;2022-08-05T07:36:03;4.28;;;3.72;;
58071;SDS011;60383;46.626;18.866;2022-08-05T07:38:29;4.25;;;3.85;;
58071;SDS011;60383;46.626;18.866;2022-08-05T07:40:54;6.00;;;3.90;;
58071;SDS011;60383;46.626;18.866;2022-08-05T07:43:20;5.70;;;3.95;;
58071;SDS011;60383;46.626;18.866;2022-08-05T07:45:45;7.53;;;3.90;;
58071;SDS011;60383;46.626;18.866;2022-08-05T07:48:11;4.10;;;3.70;;
58071;SDS011;60383;46.626;18.866;2022-08-05T07:50:36;5.95;;;4.10;;
58071;SDS011;60383;46.626;18.866;2022-08-05T07:53:02;11.88;;;4.53;;
58071;SDS011;60383;46.626;18.866;2022-08-05T07:55:27;4.57;;;3.83;;
58071;SDS011;60383;46.626;18.866;2022-08-05T07:57:54;5.32;;;4.00;;
58071;SDS011;60383;46.626;18.866;2022-08-05T08:00:20;4.47;;;3.80;;
58071;SDS011;60383;46.626;18.866;2022-08-05T08:02:45;5.32;;;4.00;;
58071;SDS011;60383;46.626;18.866;2022-08-05T08:05:11;6.57;;;3.67;;
58071;SDS011;60383;46.626;18.866;2022-08-05T08:07:36;8.20;;;4.03;;
58071;SDS011;60383;46.626;18.866;2022-08-05T08:10:02;5.57;;;3.83;;
58071;SDS011;60383;46.626;18.866;2022-08-05T08:12:28;5.72;;;4.50;;
58071;SDS011;60383;46.626;18.866;2022-08-05T08:14:54;5.75;;;4.00;;
58071;SDS011;60383;46.626;18.866;2022-08-05T08:17:19;4.35;;;3.70;;
58071;SDS011;60383;46.626;18.866;2022-08-05T08:19:45;5.10;;;3.92;;
58071;SDS011;60383;46.626;18.866;2022-08-05T08:22:10;4.80;;;4.10;;
58071;SDS011;60383;46.626;18.866;2022-08-05T08:24:36;4.68;;;3.90;;
58071;SDS011;60383;46.626;18.866;2022-08-05T08:27:02;7.35;;;3.65;;
58071;SDS011;60383;46.626;18.866;2022-08-05T08:29:29;4.72;;;3.70;;
58071;SDS011;60383;46.626;18.866;2022-08-05T08:31:54;7.47;;;4.35;;
58071;SDS011;60383;46.626;18.866;2022-08-05T08:34:21;6.18;;;3.80;;
58071;SDS011;60383;46.626;18.866;2022-08-05T08:36:48;4.70;;;3.55;;
58071;SDS011;60383;46.626;18.866;2022-08-05T08:39:13;5.93;;;3.78;;
58071;SDS011;60383;46.626;18.866;2022-08-05T08:41:41;7.68;;;3.50;;
58071;SDS011;60383;46.626;18.866;2022-08-05T08:44:08;6.22;;;3.72;;
58071;SDS011;60383;46.626;18.866;2022-08-05T08:46:36;5.15;;;3.60;;
58071;SDS011;60383;46.626;18.866;2022-08-05T08:49:02;6.13;;;3.72;;
58071;SDS011;60383;46.626;18.866;2022-08-05T08:51:30;4.70;;;3.65;;
58071;SDS011;60383;46.626;18.866;2022-08-05T08:53:57;7.80;;;4.10;;
58071;SDS011;60383;46.626;18.866;2022-08-05T08:56:24;6.13;;;3.50;;
58071;SDS011;60383;46.626;18.866;2022-08-05T08:58:50;5.47;;;3.50;;
58071;SDS011;60383;46.626;18.866;2022-08-05T09:01:17;5.03;;;3.50;;
58071;SDS011;60383;46.626;18.866;2022-08-05T09:03:50;4.93;;;3.50;;
58071;SDS011;60383;46.626;18.866;2022-08-05T09:06:17;5.03;;;3.30;;
58071;SDS011;60383;46.626;18.866;2022-08-05T09:08:42;4.55;;;3.40;;
58071;SDS011;60383;46.626;18.866;2022-08-05T09:11:08;3.95;;;3.53;;
58071;SDS011;60383;46.626;18.866;2022-08-05T09:13:35;4.65;;;3.50;;
58071;SDS011;60383;46.626;18.866;2022-08-05T09:16:01;5.78;;;3.65;;
58071;SDS011;60383;46.626;18.866;2022-08-05T09:18:27;3.60;;;3.30;;
58071;SDS011;60383;46.626;18.866;2022-08-05T09:20:53;4.03;;;3.20;;
58071;SDS011;60383;46.626;18.866;2022-08-05T09:23:19;5.82;;;3.10;;
58071;SDS011;60383;46.626;18.866;2022-08-05T09:25:46;4.20;;;3.08;;
58071;SDS011;60383;46.626;18.866;2022-08-05T09:28:17;3.28;;;2.97;;
58071;SDS011;60383;46.626;18.866;2022-08-05T09:30:59;5.63;;;3.00;;
58071;SDS011;60383;46.626;18.866;2022-08-05T09:33:30;2.92;;;2.70;;
58071;SDS011;60383;46.626;18.866;2022-08-05T09:35:56;6.45;;;2.90;;
58071;SDS011;60383;46.626;18.866;2022-08-05T09:38:22;4.85;;;2.70;;
58071;SDS011;60383;46.626;18.866;2022-08-05T09:40:48;4.10;;;2.45;;
58071;SDS011;60383;46.626;18.866;2022-08-05T09:43:31;3.33;;;2.30;;
58071;SDS011;60383;46.626;18.866;2022-08-05T09:45:57;3.38;;;2.15;;
58071;SDS011;60383;46.626;18.866;2022-08-05T09:48:30;2.60;;;2.30;;
58071;SDS011;60383;46.626;18.866;2022-08-05T09:53:30;4.00;;;2.38;;
58071;SDS011;60383;46.626;18.866;2022-08-05T09:56:11;5.72;;;2.15;;
58071;SDS011;60383;46.626;18.866;2022-08-05T09:58:37;4.03;;;2.30;;
58071;SDS011;60383;46.626;18.866;2022-08-05T10:01:04;2.83;;;2.22;;
58071;SDS011;60383;46.626;18.866;2022-08-05T10:03:31;2.72;;;2.17;;
58071;SDS011;60383;46.626;18.866;2022-08-05T10:06:07;4.05;;;2.30;;
58071;SDS011;60383;46.626;18.866;2022-08-05T10:08:37;2.40;;;2.15;;
58071;SDS011;60383;46.626;18.866;2022-08-05T10:11:13;5.82;;;2.22;;
58071;SDS011;60383;46.626;18.866;2022-08-05T10:13:40;5.05;;;2.40;;
58071;SDS011;60383;46.626;18.866;2022-08-05T10:16:06;3.30;;;2.90;;
58071;SDS011;60383;46.626;18.866;2022-08-05T10:18:53;3.78;;;2.45;;
58071;SDS011;60383;46.626;18.866;2022-08-05T10:21:19;3.80;;;2.55;;
58071;SDS011;60383;46.626;18.866;2022-08-05T10:23:44;3.17;;;2.70;;
58071;SDS011;60383;46.626;18.866;2022-08-05T10:26:11;4.28;;;2.75;;
58071;SDS011;60383;46.626;18.866;2022-08-05T10:28:37;3.33;;;2.90;;
58071;SDS011;60383;46.626;18.866;2022-08-05T10:31:03;2.70;;;2.50;;
58071;SDS011;60383;46.626;18.866;2022-08-05T10:33:30;4.93;;;2.70;;
58071;SDS011;60383;46.626;18.866;2022-08-05T10:35:57;3.30;;;2.50;;
58071;SDS011;60383;46.626;18.866;2022-08-05T10:38:24;2.97;;;2.78;;
58071;SDS011;60383;46.626;18.866;2022-08-05T10:40:57;4.05;;;2.60;;
58071;SDS011;60383;46.626;18.866;2022-08-05T10:46:12;3.63;;;2.85;;
58071;SDS011;60383;46.626;18.866;2022-08-05T10:48:44;3.78;;;2.60;;
58071;SDS011;60383;46.626;18.866;2022-08-05T10:51:14;6.57;;;2.78;;
58071;SDS011;60383;46.626;18.866;2022-08-05T10:56:16;2.95;;;2.53;;
58071;SDS011;60383;46.626;18.866;2022-08-05T10:59:02;4.13;;;2.42;;
58071;SDS011;60383;46.626;18.866;2022-08-05T11:01:32;4.72;;;2.80;;
58071;SDS011;60383;46.626;18.866;2022-08-05T11:06:24;5.15;;;2.72;;
58071;SDS011;60383;46.626;18.866;2022-08-05T11:14:49;4.35;;;2.50;;
58071;SDS011;60383;46.626;18.866;2022-08-05T11:17:32;4.18;;;2.38;;
58071;SDS011;60383;46.626;18.866;2022-08-05T11:20:03;4.93;;;2.67;;
58071;SDS011;60383;46.626;18.866;2022-08-05T11:22:43;2.63;;;2.35;;
58071;SDS011;60383;46.626;18.866;2022-08-05T11:35:57;3.00;;;2.80;;
58071;SDS011;60383;46.626;18.866;2022-08-05T11:41:14;3.80;;;2.75;;
58071;SDS011;60383;46.626;18.866;2022-08-05T11:44:00;5.45;;;3.00;;
58071;SDS011;60383;46.626;18.866;2022-08-05T11:46:35;3.55;;;2.55;;
58071;SDS011;60383;46.626;18.866;2022-08-05T11:49:05;3.20;;;2.50;;
58071;SDS011;60383;46.626;18.866;2022-08-05T11:51:32;5.85;;;2.40;;
58071;SDS011;60383;46.626;18.866;2022-08-05T11:53:58;3.33;;;2.58;;
58071;SDS011;60383;46.626;18.866;2022-08-05T11:56:45;3.42;;;2.47;;
58071;SDS011;60383;46.626;18.866;2022-08-05T11:59:16;3.53;;;2.80;;
58071;SDS011;60383;46.626;18.866;2022-08-05T12:04:21;5.25;;;2.80;;
58071;SDS011;60383;46.626;18.866;2022-08-05T12:06:46;3.75;;;2.80;;
58071;SDS011;60383;46.626;18.866;2022-08-05T12:09:12;3.08;;;2.47;;
58071;SDS011;60383;46.626;18.866;2022-08-05T12:11:42;2.58;;;2.38;;
58071;SDS011;60383;46.626;18.866;2022-08-05T12:14:09;4.05;;;2.72;;
58071;SDS011;60383;46.626;18.866;2022-08-05T12:16:36;5.10;;;2.53;;
58071;SDS011;60383;46.626;18.866;2022-08-05T12:19:03;6.50;;;2.60;;
58071;SDS011;60383;46.626;18.866;2022-08-05T12:21:30;2.92;;;2.45;;
58071;SDS011;60383;46.626;18.866;2022-08-05T12:26:29;6.55;;;2.50;;
58071;SDS011;60383;46.626;18.866;2022-08-05T12:28:57;2.92;;;2.20;;
58071;SDS011;60383;46.626;18.866;2022-08-05T12:31:23;3.15;;;2.85;;
58071;SDS011;60383;46.626;18.866;2022-08-05T12:33:48;3.40;;;2.50;;
58071;SDS011;60383;46.626;18.866;2022-08-05T12:36:14;5.38;;;2.33;;
58071;SDS011;60383;46.626;18.866;2022-08-05T12:38:40;3.80;;;2.80;;
58071;SDS011;60383;46.626;18.866;2022-08-05T12:41:15;2.90;;;2.60;;
58071;SDS011;60383;46.626;18.866;2022-08-05T12:43:51;4.15;;;2.85;;
58071;SDS011;60383;46.626;18.866;2022-08-05T12:46:25;2.80;;;2.50;;
58071;SDS011;60383;46.626;18.866;2022-08-05T12:49:36;4.30;;;2.63;;
58071;SDS011;60383;46.626;18.866;2022-08-05T12:52:03;4.13;;;2.60;;
58071;SDS011;60383;46.626;18.866;2022-08-05T12:54:28;6.22;;;2.50;;
58071;SDS011;60383;46.626;18.866;2022-08-05T12:56:56;2.63;;;2.40;;
58071;SDS011;60383;46.626;18.866;2022-08-05T12:59:23;2.92;;;2.40;;
58071;SDS011;60383;46.626;18.866;2022-08-05T13:04:27;2.60;;;2.13;;
58071;SDS011;60383;46.626;18.866;2022-08-05T13:06:57;9.52;;;2.60;;
58071;SDS011;60383;46.626;18.866;2022-08-05T13:09:25;2.67;;;2.30;;
58071;SDS011;60383;46.626;18.866;2022-08-05T13:12:09;3.23;;;2.60;;
58071;SDS011;60383;46.626;18.866;2022-08-05T13:14:37;2.80;;;2.40;;
58071;SDS011;60383;46.626;18.866;2022-08-05T13:17:08;3.97;;;2.20;;
58071;SDS011;60383;46.626;18.866;2022-08-05T13:22:49;3.55;;;2.45;;
58071;SDS011;60383;46.626;18.866;2022-08-05T13:25:16;3.85;;;2.50;;
58071;SDS011;60383;46.626;18.866;2022-08-05T13:27:47;3.47;;;2.40;;
58071;SDS011;60383;46.626;18.866;2022-08-05T13:30:13;2.60;;;2.40;;
58071;SDS011;60383;46.626;18.866;2022-08-05T13:32:41;5.32;;;2.55;;
58071;SDS011;60383;46.626;18.866;2022-08-05T13:35:07;4.10;;;2.30;;
58071;SDS011;60383;46.626;18.866;2022-08-05T13:37:34;4.28;;;2.35;;
58071;SDS011;60383;46.626;18.866;2022-08-05T13:40:00;3.55;;;2.70;;
58071;SDS011;60383;46.626;18.866;2022-08-05T13:42:26;2.92;;;2.20;;
58071;SDS011;60383;46.626;18.866;2022-08-05T13:44:52;4.43;;;2.58;;
58071;SDS011;60383;46.626;18.866;2022-08-05T13:47:18;3.25;;;2.70;;
58071;SDS011;60383;46.626;18.866;2022-08-05T13:49:44;4.20;;;2.65;;
58071;SDS011;60383;46.626;18.866;2022-08-05T13:52:14;5.65;;;2.40;;
58071;SDS011;60383;46.626;18.866;2022-08-05T13:54:55;3.83;;;2.60;;
58071;SDS011;60383;46.626;18.866;2022-08-05T13:57:21;3.97;;;2.90;;
58071;SDS011;60383;46.626;18.866;2022-08-05T13:59:46;2.97;;;2.67;;
58071;SDS011;60383;46.626;18.866;2022-08-05T14:02:12;2.58;;;2.38;;
58071;SDS011;60383;46.626;18.866;2022-08-05T14:04:39;3.30;;;2.30;;
58071;SDS011;60383;46.626;18.866;2022-08-05T14:07:25;2.63;;;2.42;;
58071;SDS011;60383;46.626;18.866;2022-08-05T14:09:53;3.78;;;2.70;;
58071;SDS011;60383;46.626;18.866;2022-08-05T14:12:19;3.28;;;2.20;;
58071;SDS011;60383;46.626;18.866;2022-08-05T14:14:44;2.50;;;2.30;;
58071;SDS011;60383;46.626;18.866;2022-08-05T14:17:10;3.15;;;2.33;;
58071;SDS011;60383;46.626;18.866;2022-08-05T14:19:37;3.35;;;2.60;;
58071;SDS011;60383;46.626;18.866;2022-08-05T14:22:03;4.70;;;2.67;;
58071;SDS011;60383;46.626;18.866;2022-08-05T14:24:29;3.30;;;2.50;;
58071;SDS011;60383;46.626;18.866;2022-08-05T14:26:54;3.25;;;2.55;;
58071;SDS011;60383;46.626;18.866;2022-08-05T14:29:20;2.63;;;2.42;;
58071;SDS011;60383;46.626;18.866;2022-08-05T14:31:45;3.72;;;2.38;;
58071;SDS011;60383;46.626;18.866;2022-08-05T14:34:10;2.95;;;2.60;;
58071;SDS011;60383;46.626;18.866;2022-08-05T14:36:36;6.68;;;2.92;;
58071;SDS011;60383;46.626;18.866;2022-08-05T14:39:01;3.75;;;2.50;;
58071;SDS011;60383;46.626;18.866;2022-08-05T14:41:29;4.38;;;2.58;;
58071;SDS011;60383;46.626;18.866;2022-08-05T14:43:55;3.83;;;2.63;;
58071;SDS011;60383;46.626;18.866;2022-08-05T14:46:21;3.40;;;2.83;;
58071;SDS011;60383;46.626;18.866;2022-08-05T14:48:47;3.20;;;2.60;;
58071;SDS011;60383;46.626;18.866;2022-08-05T14:51:13;5.03;;;3.10;;
58071;SDS011;60383;46.626;18.866;2022-08-05T14:53:38;3.50;;;3.05;;
58071;SDS011;60383;46.626;18.866;2022-08-05T14:56:04;3.45;;;2.50;;
58071;SDS011;60383;46.626;18.866;2022-08-05T14:58:29;3.20;;;2.40;;
58071;SDS011;60383;46.626;18.866;2022-08-05T15:00:55;2.80;;;2.60;;
58071;SDS011;60383;46.626;18.866;2022-08-05T15:03:20;3.75;;;2.38;;
58071;SDS011;60383;46.626;18.866;2022-08-05T15:05:45;5.28;;;2.67;;
58071;SDS011;60383;46.626;18.866;2022-08-05T15:08:11;5.25;;;2.60;;
58071;SDS011;60383;46.626;18.866;2022-08-05T15:10:36;4.30;;;2.55;;
58071;SDS011;60383;46.626;18.866;2022-08-05T15:13:02;4.18;;;2.55;;
58071;SDS011;60383;46.626;18.866;2022-08-05T15:15:28;3.80;;;2.30;;
58071;SDS011;60383;46.626;18.866;2022-08-05T15:17:54;4.07;;;2.42;;
58071;SDS011;60383;46.626;18.866;2022-08-05T15:20:19;4.22;;;2.67;;
58071;SDS011;60383;46.626;18.866;2022-08-05T15:22:49;2.70;;;2.50;;
58071;SDS011;60383;46.626;18.866;2022-08-05T15:25:14;2.55;;;2.30;;
58071;SDS011;60383;46.626;18.866;2022-08-05T15:27:40;2.63;;;2.20;;
58071;SDS011;60383;46.626;18.866;2022-08-05T15:30:06;3.90;;;2.45;;
58071;SDS011;60383;46.626;18.866;2022-08-05T15:32:32;2.70;;;2.50;;
58071;SDS011;60383;46.626;18.866;2022-08-05T15:34:57;2.50;;;2.30;;